• Join FlightAware (Why Join?)
  • Login
  • US Flag 
01:34AM EDT


 

Airport Tracker/Info


-or-


 

Live Flight TrackerFlight Track Log ✈ SWA3313 ✈ 03-Dec-2013 ✈ KHOU - KMDW

Flight Track Log - Related Links

Times and Time Zones

All times are in EST time to prevent confusion due to time zone crossing. See the SWA3313 flight status page for this flight to view local times or setup timezone preferences in your user account.

Time Position Orientation Groundspeed Altitude Reporting Facility
EST Latitude Longitude Course Direction KTS MPH feet Rate Location/Type
09:24AM 29.6317 -95.2944 318° Northwest 152 175 1,100  Level Houston Center
09:25AM 29.6525 -95.3158 318° Northwest 206 237 2,400 2,280 Climbing Houston Center
09:26AM 29.6953 -95.3006 17° North 245 282 4,000 3,000 Climbing Houston Center
09:26AM 29.7178 -95.2936 15° North 278 320 5,200 3,540 Climbing Houston Center
09:27AM 29.7703 -95.2719 20° North 277 319 7,700 3,120 Climbing Houston Center
09:28AM 29.8519 -95.2464 15° North 295 339 10,800 2,640 Climbing Houston Center
09:29AM 29.9506 -95.2247 11° North 351 404 13,200 2,460 Climbing Houston Center
09:30AM 30.0508 -95.2008 12° North 364 419 16,000 2,040 Climbing Houston Center
09:31AM 30.1553 -95.1761 12° North 375 432 17,500 2,220 Climbing Houston Center
09:33AM 30.3906 -95.0828 19° North 412 474 23,000 2,220 Climbing Houston Center
09:34AM 30.4981 -95.0308 23° Northeast 416 479 24,500 1,560 Climbing Houston Center
09:35AM 30.6092 -94.9767 23° Northeast 425 489 26,300 1,560 Climbing Houston Center
09:36AM 30.7236 -94.9206 23° Northeast 438 504 27,800 1,500 Climbing Houston Center
09:37AM 30.8425 -94.8617 23° Northeast 456 525 29,400 1,800 Climbing Houston Center
09:38AM 30.9614 -94.8033 23° Northeast 462 532 31,500 2,400 Climbing Houston Center
09:39AM 31.0972 -94.7364 23° Northeast 450 518 34,400 2,220 Climbing Houston Center
09:40AM 31.1928 -94.6889 23° Northeast 432 497 36,100 1,200 Climbing Houston Center
09:41AM 31.3050 -94.6328 23° Northeast 421 484 37,000 420 Climbing Houston Center
09:42AM 31.4094 -94.5806 23° Northeast 414 476 37,000  Level Houston Center
09:43AM 31.5364 -94.5172 23° Northeast 413 475 37,000  Level Houston Center
09:44AM 31.6442 -94.4639 23° Northeast 418 481 37,000  Level Houston Center
09:45AM 31.7514 -94.4089 24° Northeast 420 483 37,000  Level Houston Center
09:46AM 31.8589 -94.3553 23° Northeast 420 483 37,000  Level Houston Center
09:47AM 31.9672 -94.3000 23° Northeast 424 488 37,000  Level Houston Center
09:48AM 32.0756 -94.2458 23° Northeast 423 487 37,000  Level Houston Center
09:49AM 32.2047 -94.1806 23° Northeast 421 484 37,000  Level Houston Center
09:50AM 32.3125 -94.1242 24° Northeast 423 487 37,000  Level Houston Center
09:51AM 32.4211 -94.0697 23° Northeast 423 487 37,000  Level Houston Center
09:52AM 32.5306 -94.0128 24° Northeast 427 491 37,000  Level Houston Center
09:53AM 32.6414 -93.9578 23° Northeast 432 497 37,000  Level Houston Center
09:55AM 32.7519 -93.8989 24° Northeast 435 501 37,000  Level Houston Center
09:56AM 32.8861 -93.8314 23° Northeast 434 499 37,000  Level Houston Center
09:57AM 33.0136 -93.7650 24° Northeast 439 505 37,000  Level Fort Worth Center
09:58AM 33.1244 -93.7061 24° Northeast 440 506 37,000  Level Fort Worth Center
09:59AM 33.2350 -93.6478 24° Northeast 440 506 37,000  Level Fort Worth Center
10:00AM 33.3686 -93.5783 23° Northeast 442 509 37,000  Level Fort Worth Center
10:01AM 33.4753 -93.5247 23° Northeast 436 502 37,000  Level Fort Worth Center
10:02AM 33.6006 -93.4858 14° North 425 489 37,000  Level Fort Worth Center
10:03AM 33.7150 -93.4544 13° North 423 487 37,000  Level Fort Worth Center
10:04AM 33.8533 -93.4172 13° North 425 489 37,000  Level Memphis Center
10:05AM 33.9700 -93.3853 13° North 428 493 37,000  Level Memphis Center
10:06AM 34.0842 -93.3242 24° Northeast 443 510 37,000  Level Memphis Center
10:07AM 34.1981 -93.2603 25° Northeast 452 520 37,000  Level Memphis Center
10:08AM 34.3122 -93.1969 25° Northeast 452 520 37,000  Level Memphis Center
10:09AM 34.4258 -93.1328 25° Northeast 453 521 37,000  Level Memphis Center
10:10AM 34.5625 -93.0567 25° Northeast 451 519 37,000  Level Memphis Center
10:11AM 34.6756 -92.9922 25° Northeast 450 518 37,000  Level Memphis Center
10:12AM 34.7889 -92.9289 25° Northeast 449 517 37,000  Level Memphis Center
10:13AM 34.9014 -92.8656 25° Northeast 448 516 37,000  Level Memphis Center
10:14AM 35.0125 -92.8017 25° Northeast 446 513 37,000  Level Memphis Center
10:15AM 35.1450 -92.7261 25° Northeast 444 511 37,000  Level Memphis Center
10:17AM 35.2553 -92.6617 26° Northeast 444 511 37,000  Level Memphis Center
10:18AM 35.3667 -92.5989 25° Northeast 445 512 37,000  Level Memphis Center
10:19AM 35.4781 -92.5339 25° Northeast 447 514 37,000  Level Memphis Center
10:20AM 35.5897 -92.4683 26° Northeast 448 516 37,000  Level Memphis Center
10:21AM 35.7261 -92.3906 25° Northeast 452 520 37,000  Level Memphis Center
10:22AM 35.8386 -92.3244 25° Northeast 450 518 37,000  Level Memphis Center
10:23AM 35.9517 -92.2592 25° Northeast 450 518 37,000  Level Memphis Center
10:24AM 36.0653 -92.1922 25° Northeast 453 521 37,000  Level Memphis Center
10:25AM 36.1781 -92.1258 25° Northeast 450 518 37,000  Level Memphis Center
10:26AM 36.3128 -92.0467 25° Northeast 449 517 37,000  Level Memphis Center
10:27AM 36.4258 -91.9803 25° Northeast 449 517 37,000  Level Memphis Center
10:28AM 36.5333 -91.9147 26° Northeast 448 516 37,000  Level Memphis Center
10:29AM 36.6456 -91.8492 25° Northeast 446 513 37,000  Level Memphis Center
10:29AM 36.7128 -91.8064 27° Northeast 443 510 37,000  Level Kansas City Center
10:31AM 36.8233 -91.7397 26° Northeast 440 506 37,000  Level Kansas City Center
10:32AM 36.9325 -91.6772 25° Northeast 434 499 37,000  Level Kansas City Center
10:33AM 37.0403 -91.6119 26° Northeast 432 497 37,000  Level Kansas City Center
10:34AM 37.1508 -91.5436 26° Northeast 437 503 37,000  Level Kansas City Center
10:35AM 37.2822 -91.4656 25° Northeast 436 502 37,000  Level Kansas City Center
10:36AM 37.3911 -91.3986 26° Northeast 435 501 37,000  Level Kansas City Center
10:37AM 37.5019 -91.3317 26° Northeast 439 505 37,000  Level Kansas City Center
10:38AM 37.6114 -91.2644 26° Northeast 438 504 37,000  Level Kansas City Center
10:39AM 37.7208 -91.1972 26° Northeast 438 504 37,000  Level Kansas City Center
10:40AM 37.8308 -91.1297 26° Northeast 439 505 37,000  Level Kansas City Center
10:41AM 37.9522 -91.0542 26° Northeast 443 510 37,000  Level Kansas City Center
10:42AM 38.0653 -90.9853 26° Northeast 448 516 37,000  Level Kansas City Center
10:43AM 38.1772 -90.9142 27° Northeast 449 517 37,000  Level Kansas City Center
10:44AM 38.2903 -90.8444 26° Northeast 450 518 37,000  Level Kansas City Center
10:45AM 38.4061 -90.7950 18° North 441 507 37,000  Level Kansas City Center
10:46AM 38.5464 -90.7356 18° North 441 507 37,000  Level Kansas City Center
10:47AM 38.6531 -90.6889 19° North 444 511 37,000  Level Kansas City Center
10:48AM 38.7969 -90.6286 18° North 450 518 37,000  Level Kansas City Center
10:49AM 38.9164 -90.5764 19° North 452 520 37,000  Level Kansas City Center
10:50AM 39.0283 -90.5272 19° North 453 521 37,000 -360 Level Kansas City Center
10:51AM 39.1481 -90.4758 18° North 451 519 36,300 -840 Descending Kansas City Center
10:52AM 39.2675 -90.4225 19° North 453 521 35,300 -960 Descending Kansas City Center
10:53AM 39.3842 -90.3722 18° North 445 512 34,400 -1,020 Descending Kansas City Center
10:54AM 39.5283 -90.3097 18° North 452 520 33,200 -1,020 Descending Kansas City Center
10:55AM 39.6492 -90.2556 19° North 457 526 32,300 -960 Descending Kansas City Center
10:56AM 39.7672 -90.2028 19° North 460 529 31,300 -660 Descending Kansas City Center
10:57AM 39.8869 -90.1497 19° North 455 524 31,000 -180 Descending Kansas City Center
10:58AM 40.0069 -90.0978 18° North 454 522 31,000  Level Kansas City Center
10:59AM 40.1267 -90.0436 19° North 454 522 31,000 -480 Level Kansas City Center
11:00AM 40.2636 -89.9536 27° Northeast 465 535 30,100 -960 Descending Kansas City Center
11:01AM 40.3642 -89.8511 38° Northeast 461 531 29,100 -1,560 Descending Kansas City Center
11:03AM 40.4631 -89.7506 38° Northeast 457 526 26,900 -2,040 Descending Kansas City Center
11:04AM 40.5731 -89.6386 38° Northeast 438 504 24,600 -1,980 Descending Chicago Center
11:05AM 40.6706 -89.5383 38° Northeast 437 503 22,700 -2,400 Descending Chicago Center
11:06AM 40.7836 -89.4225 38° Northeast 434 499 19,800 -2,100 Descending Chicago Center
11:07AM 40.8692 -89.3164 43° Northeast 428 493 18,500 -1,260 Descending Chicago Center
11:08AM 40.9472 -89.2031 48° Northeast 418 481 17,300 -1,380 Descending Chicago Center
11:09AM 41.0197 -89.0944 48° Northeast 404 465 15,700 -1,920 Descending Chicago Center
11:10AM 41.0939 -88.9889 47° Northeast 393 452 13,400 -2,220 Descending Chicago Center
11:11AM 41.1661 -88.8822 48° Northeast 389 448 11,200 -1,560 Descending Chicago Center
11:12AM 41.2461 -88.7647 48° Northeast 356 410 10,200 -960 Descending Chicago Center
11:13AM 41.3047 -88.6778 48° Northeast 324 373 9,300 -1,200 Descending Chicago Center
11:14AM 41.3592 -88.5956 49° Northeast 301 346 7,800 -1,440 Descending Chicago Center
11:15AM 41.4139 -88.5158 48° Northeast 294 338 6,400 -900 Descending Chicago Center
11:16AM 41.4664 -88.4372 48° Northeast 287 330 6,000 -300 Descending Chicago Center
11:17AM 41.5169 -88.3614 48° Northeast 276 318 5,900 -600 Descending Chicago Center
11:18AM 41.5694 -88.2844 48° Northeast 276 318 4,800 -960 Descending Chicago Center
11:19AM 41.6233 -88.2053 48° Northeast 281 323 4,000 -1,080 Descending Chicago Center
11:20AM 41.6789 -88.1311 45° Northeast 281 323 2,700 -780 Descending Chicago Center
11:21AM 41.7522 -88.0592 36° Northeast 276 318 2,500 -120 Descending Chicago Center
11:22AM 41.8058 -88.0069 36° Northeast 258 297 2,500  Level Chicago Center
11:23AM 41.8536 -87.9614 35° Northeast 232 267 2,500  Level Chicago Center
11:24AM 41.8833 -87.9167 48° Northeast 190 219 2,500  Level Chicago TRACON
11:25AM 41.8667 -87.8500 109° East 173 199 2,500 -420 Level Chicago TRACON
11:26AM 41.8333 -87.8167 143° Southeast 154 177 1,800 -780 Descending Chicago TRACON
11:27AM 41.8000 -87.7833 143° Southeast 128 147 1,100 -720 Descending Chicago TRACON